Main page
METAR-TAF:

METAR-TAF

Airports :

Pardubice Airport

Pardubice, Czech Republic

latitude: 50-00-48N, longitude: 15-44-19E, elevation: 226 m

Current weather observation

The report was made 53 minutes ago, at 23:00 UTC
Wind 1 kt from variable directions
Temperature 15°C
Humidity 67%
Pressure 1013 hPa
Visibility 10 km or more
no clouds below 1500 m and no cumulonimbus

METAR: LKPD 202300Z VRB01KT CAVOK 15/09 Q1013 RMK BLU

Time: 01:53 (23:53 UTC)

Forecast

The report was made 6 hours and 53 minutes ago, at 17:00 UTC
Forecast valid from 20 at 18 UTC to 21 at 18 UTC
Wind 2 kt from variable directions
Visibility 10 km or more
no clouds below 1500 m and no cumulonimbus
Temporary
from 21 at 11 UTC to 21 at 15 UTC
Wind 12 kt from the East/Southeast with gusts up to 24 kt
Scattered clouds at a height of 4000 ft, Towering cumulus.

TAF: LKPD 201700Z 2018/2118 VRB02KT CAVOK TEMPO 2111/2115 12012G24KT SCT040TCU

Weather observations and forecasts of more than 4000 airports (METAR and TAF reports).

The available stations are represented by yellow and red dots on the map.

Hover mouse over dot to see the name of the station.

Then click to see weather observations and forecasts.

To change the map : click on the green buttons with a black cross to zoom in, on the green button with a dash to zoom out, or on the green arrows for adjacent maps.


METAR-TAF: